createdAt,value
2022-12-05T00:00:28.728Z,12.88
2022-12-05T00:03:13.496Z,15.55
2022-12-05T00:05:46.405Z,13.80
2022-12-05T00:08:19.136Z,16.10
2022-12-05T00:10:52.047Z,16.05
2022-12-05T00:13:24.597Z,16.33
2022-12-05T00:15:57.602Z,15.35
2022-12-05T00:18:30.187Z,16.08
2022-12-05T00:21:03.592Z,13.07
2022-12-05T00:23:36.097Z,13.60
2022-12-05T00:26:09.657Z,14.10
2022-12-05T00:28:42.445Z,12.93
2022-12-05T00:31:16.940Z,13.50
2022-12-05T00:33:49.913Z,16.40
2022-12-05T00:36:24.285Z,12.48
2022-12-05T00:38:56.869Z,14.57
2022-12-05T00:41:30.249Z,13.48
2022-12-05T00:44:03.403Z,13.70
2022-12-05T00:46:36.824Z,13.65
2022-12-05T00:49:11.416Z,13.35
2022-12-05T00:51:44.359Z,13.82
2022-12-05T00:54:17.524Z,15.05
2022-12-05T00:56:52.922Z,16.35
2022-12-05T00:59:25.552Z,14.80
2022-12-05T01:01:58.631Z,15.02
2022-12-05T01:04:31.157Z,14.10
2022-12-05T01:07:04.051Z,16.10
2022-12-05T01:09:36.644Z,14.95
2022-12-05T01:12:09.504Z,15.40
2022-12-05T01:14:42.012Z,15.65
2022-12-05T01:17:15.131Z,15.77
2022-12-05T01:19:47.697Z,16.35
2022-12-05T01:22:20.780Z,17.05
2022-12-05T01:24:53.283Z,16.15
2022-12-05T01:27:26.429Z,14.60
2022-12-05T01:29:59.319Z,17.85
2022-12-05T01:32:32.399Z,13.82
2022-12-05T01:35:06.306Z,17.45
2022-12-05T01:37:39.198Z,16.15
2022-12-05T01:40:11.769Z,16.85
2022-12-05T01:42:44.613Z,14.23
2022-12-05T01:45:27.011Z,15.07
2022-12-05T01:48:03.240Z,13.35
2022-12-05T01:50:36.314Z,15.43
2022-12-05T01:53:09.319Z,17.95
2022-12-05T01:55:42.075Z,16.65
2022-12-05T01:58:15.615Z,17.45
2022-12-05T02:00:48.440Z,15.70
2022-12-05T02:03:22.407Z,15.07
2022-12-05T02:05:55.431Z,17.10
2022-12-05T02:08:28.847Z,14.88
2022-12-05T02:11:01.416Z,14.32
2022-12-05T02:13:34.265Z,15.77
2022-12-05T02:16:19.459Z,16.70
2022-12-05T02:19:01.388Z,15.38
2022-12-05T02:21:52.681Z,13.85
2022-12-05T02:24:43.828Z,14.15
2022-12-05T02:27:35.018Z,14.52
2022-12-05T02:30:10.771Z,16.02
2022-12-05T02:32:50.991Z,15.25
2022-12-05T02:35:23.781Z,15.05
2022-12-05T02:38:02.342Z,12.57
2022-12-05T02:40:40.263Z,15.48
2022-12-05T02:43:32.995Z,14.00
2022-12-05T02:46:11.420Z,13.95
2022-12-05T02:48:46.194Z,13.35
2022-12-05T02:51:21.780Z,14.30
2022-12-05T02:53:58.518Z,15.13
2022-12-05T02:56:33.434Z,13.90
2022-12-05T02:59:06.102Z,11.80
2022-12-05T03:01:39.447Z,14.75
2022-12-05T03:04:12.808Z,14.02
2022-12-05T03:06:48.908Z,13.95
2022-12-05T03:09:27.685Z,13.80
2022-12-05T03:12:09.250Z,15.05
2022-12-05T03:14:47.366Z,15.60
2022-12-05T03:17:23.487Z,13.15
2022-12-05T03:20:07.360Z,14.85
2022-12-05T03:22:49.373Z,13.85
2022-12-05T03:25:24.892Z,15.90
2022-12-05T03:28:05.347Z,15.27
2022-12-05T03:30:39.089Z,15.43
2022-12-05T03:33:12.003Z,13.73
2022-12-05T03:35:57.470Z,13.40
2022-12-05T03:38:56.697Z,14.80
2022-12-05T03:42:04.641Z,13.32
2022-12-05T03:44:47.337Z,12.68
2022-12-05T03:47:24.895Z,13.65
2022-12-05T03:50:00.192Z,13.23
2022-12-05T03:53:18.194Z,13.93
2022-12-05T03:55:41.654Z,13.95
2022-12-05T03:58:34.357Z,13.10
2022-12-05T04:01:09.011Z,16.38
2022-12-05T04:03:45.159Z,15.90
2022-12-05T04:06:21.824Z,14.40
2022-12-05T04:08:56.822Z,15.38
2022-12-05T04:11:32.931Z,16.75
2022-12-05T04:14:18.524Z,13.88
2022-12-05T04:17:06.485Z,13.02
2022-12-05T04:20:00.929Z,12.77
2022-12-05T04:22:35.328Z,11.95
2022-12-05T04:25:28.025Z,13.80
2022-12-05T04:28:06.808Z,13.80
2022-12-05T04:30:49.376Z,12.15
2022-12-05T04:33:32.898Z,14.90
2022-12-05T04:36:14.585Z,12.73
2022-12-05T04:38:58.187Z,14.63
2022-12-05T04:41:34.536Z,12.18
2022-12-05T04:44:09.243Z,14.65
2022-12-05T04:46:44.194Z,12.68
2022-12-05T04:49:19.719Z,11.88
2022-12-05T04:51:55.494Z,16.80
2022-12-05T04:54:33.048Z,11.35
2022-12-05T04:57:08.028Z,13.93
2022-12-05T04:59:41.068Z,14.20
2022-12-05T05:02:15.292Z,12.32
2022-12-05T05:04:51.358Z,12.38
2022-12-05T05:07:23.956Z,14.52
2022-12-05T05:09:57.381Z,11.80
2022-12-05T05:12:30.107Z,15.38
2022-12-05T05:15:02.933Z,12.13
2022-12-05T05:17:35.435Z,13.55
2022-12-05T05:20:27.663Z,14.68
2022-12-05T05:23:00.502Z,15.27
2022-12-05T05:25:33.398Z,15.73
2022-12-05T05:28:06.135Z,14.70
2022-12-05T05:30:39.030Z,14.93
2022-12-05T05:33:11.584Z,16.23
2022-12-05T05:35:44.503Z,16.95
2022-12-05T05:38:17.229Z,16.75
2022-12-05T05:40:53.033Z,14.90
2022-12-05T05:43:25.676Z,13.63
2022-12-05T05:45:59.313Z,13.52
2022-12-05T05:48:31.931Z,13.85
2022-12-05T05:51:06.008Z,17.00
2022-12-05T05:53:38.679Z,15.25
2022-12-05T05:56:17.116Z,15.13
2022-12-05T05:59:00.484Z,14.95
2022-12-05T06:01:33.331Z,16.83
2022-12-05T06:04:06.015Z,15.18
2022-12-05T06:06:38.936Z,13.30
2022-12-05T06:09:11.708Z,14.55
2022-12-05T06:11:44.805Z,13.50
2022-12-05T06:14:17.401Z,13.80
2022-12-05T06:16:50.289Z,13.70
2022-12-05T06:19:22.970Z,12.93
2022-12-05T06:21:55.907Z,11.25
2022-12-05T06:24:28.929Z,12.57
2022-12-05T06:27:01.949Z,16.00
2022-12-05T06:29:35.616Z,16.83
2022-12-05T06:32:09.460Z,18.95
2022-12-05T06:34:42.664Z,16.95
2022-12-05T06:37:15.501Z,16.10
2022-12-05T06:39:48.433Z,16.10
2022-12-05T06:42:22.601Z,15.20
2022-12-05T06:44:55.087Z,16.10
2022-12-05T06:47:28.151Z,12.70
2022-12-05T06:50:01.904Z,14.70
2022-12-05T06:52:35.106Z,15.50
2022-12-05T06:55:07.835Z,14.35
2022-12-05T06:57:40.770Z,13.98
2022-12-05T07:00:34.159Z,11.07
2022-12-05T07:03:07.341Z,11.43
2022-12-05T07:05:40.437Z,11.55
2022-12-05T07:08:13.369Z,12.85
2022-12-05T07:10:51.118Z,12.85
2022-12-05T07:13:24.228Z,12.85
2022-12-05T07:15:59.409Z,14.65
2022-12-05T07:18:32.759Z,13.88
2022-12-05T07:21:14.465Z,12.20
2022-12-05T07:23:48.435Z,12.65
2022-12-05T07:26:22.897Z,13.07
2022-12-05T07:28:56.509Z,14.13
2022-12-05T07:31:30.175Z,10.98
2022-12-05T07:34:03.351Z,14.50
2022-12-05T07:36:36.023Z,13.15
2022-12-05T07:39:09.694Z,14.25
2022-12-05T07:41:42.538Z,12.02
2022-12-05T07:44:16.459Z,12.23
2022-12-05T07:46:49.092Z,13.32
2022-12-05T07:49:22.093Z,10.07
2022-12-05T07:51:54.687Z,11.13
2022-12-05T07:54:28.064Z,11.68
2022-12-05T07:57:00.579Z,12.90
2022-12-05T07:59:33.561Z,10.93
2022-12-05T08:02:06.639Z,11.32
2022-12-05T08:04:39.821Z,13.27
2022-12-05T08:07:12.365Z,11.30
2022-12-05T08:09:45.354Z,11.85
2022-12-05T08:12:17.874Z,11.70
2022-12-05T08:14:50.947Z,13.57
2022-12-05T08:17:23.799Z,12.40
2022-12-05T08:19:57.310Z,11.30
2022-12-05T08:22:30.140Z,14.68
2022-12-05T08:25:03.432Z,13.60
2022-12-05T08:27:35.932Z,14.07
2022-12-05T08:30:09.036Z,13.38
2022-12-05T08:32:41.601Z,15.70
2022-12-05T08:35:14.653Z,15.48
2022-12-05T08:37:47.690Z,14.40
2022-12-05T08:40:20.684Z,12.30
2022-12-05T08:42:53.292Z,14.48
2022-12-05T08:45:26.256Z,12.73
2022-12-05T08:47:58.830Z,11.85
2022-12-05T08:50:32.021Z,13.07
2022-12-05T08:53:04.534Z,11.32
2022-12-05T08:55:38.139Z,13.95
2022-12-05T08:58:10.788Z,12.15
2022-12-05T09:00:43.942Z,12.20
2022-12-05T09:03:16.491Z,11.93
2022-12-05T09:05:54.723Z,12.25
2022-12-05T09:08:27.542Z,12.85
2022-12-05T09:11:00.566Z,12.15
2022-12-05T09:13:33.321Z,12.02
2022-12-05T09:16:10.409Z,12.95
2022-12-05T09:18:43.684Z,13.07
2022-12-05T09:21:18.165Z,11.48
2022-12-05T09:23:51.218Z,10.23
2022-12-05T09:26:25.159Z,11.95
2022-12-05T09:28:59.002Z,11.10
2022-12-05T09:31:32.217Z,13.13
2022-12-05T09:34:04.894Z,11.27
2022-12-05T09:36:38.137Z,14.27
2022-12-05T09:39:11.498Z,13.23
2022-12-05T09:42:05.938Z,13.05
2022-12-05T09:44:42.078Z,11.90
2022-12-05T09:47:15.098Z,12.80
2022-12-05T09:50:10.996Z,12.80
2022-12-05T09:52:53.886Z,11.50
2022-12-05T09:55:29.882Z,12.35
2022-12-05T09:58:03.953Z,12.93
2022-12-05T10:00:37.425Z,13.75
2022-12-05T10:03:10.290Z,12.55
2022-12-05T10:05:49.591Z,13.80
2022-12-05T10:08:30.704Z,14.55
2022-12-05T10:11:06.801Z,12.15
2022-12-05T10:13:54.750Z,13.40
2022-12-05T10:16:32.831Z,12.05
2022-12-05T10:19:13.421Z,10.13
2022-12-05T10:21:49.926Z,12.25
2022-12-05T10:24:43.065Z,13.43
2022-12-05T10:27:19.256Z,13.30
2022-12-05T10:29:58.905Z,10.75
2022-12-05T10:32:31.789Z,13.40
2022-12-05T10:35:21.609Z,11.65
2022-12-05T10:37:55.711Z,12.50
2022-12-05T10:40:36.838Z,12.23
2022-12-05T10:43:12.469Z,13.07
2022-12-05T10:45:47.209Z,14.38
2022-12-05T10:48:20.659Z,14.27
2022-12-05T10:50:55.352Z,16.52
2022-12-05T10:53:29.335Z,15.25
2022-12-05T10:56:31.075Z,22.70
2022-12-05T10:58:59.173Z,15.25
2022-12-05T11:01:34.080Z,18.00
2022-12-05T11:04:13.752Z,15.32
2022-12-05T11:06:54.454Z,17.00
2022-12-05T11:09:34.077Z,15.32
2022-12-05T11:12:15.086Z,12.55
2022-12-05T11:14:58.789Z,15.32
2022-12-05T11:17:36.254Z,12.60
2022-12-05T11:20:20.960Z,22.27
2022-12-05T11:22:56.594Z,14.68
2022-12-05T11:25:29.085Z,14.32
2022-12-05T11:28:34.548Z,32.72
2022-12-05T11:31:08.019Z,16.25
2022-12-05T11:33:41.605Z,13.40
2022-12-05T11:36:22.488Z,13.90
2022-12-05T11:38:56.036Z,13.57
2022-12-05T11:41:47.398Z,12.02
2022-12-05T11:44:30.148Z,13.95
2022-12-05T11:47:20.608Z,11.23
2022-12-05T11:50:08.518Z,13.20
2022-12-05T11:53:13.353Z,11.65
2022-12-05T11:55:54.308Z,11.95
2022-12-05T11:58:53.232Z,12.60
2022-12-05T12:01:35.316Z,14.18
2022-12-05T12:06:46.756Z,13.63
2022-12-05T12:09:28.201Z,14.32
2022-12-05T12:12:21.516Z,14.25
2022-12-05T12:15:04.049Z,13.13
2022-12-05T12:17:42.957Z,13.75
2022-12-05T12:20:30.677Z,15.13
2022-12-05T12:23:03.593Z,14.65
2022-12-05T12:25:45.139Z,16.05
2022-12-05T12:28:30.073Z,15.85
2022-12-05T12:31:17.811Z,15.18
2022-12-05T12:34:12.149Z,15.80
2022-12-05T12:36:50.776Z,14.35
2022-12-05T12:39:30.040Z,14.75
2022-12-05T12:42:05.793Z,11.70
2022-12-05T12:44:50.007Z,11.98
2022-12-05T12:47:41.284Z,16.30
2022-12-05T12:50:22.555Z,12.10
2022-12-05T12:53:04.074Z,13.75
2022-12-05T12:55:42.262Z,12.90
2022-12-05T12:58:17.560Z,15.18
2022-12-05T13:01:05.607Z,15.63
2022-12-05T13:03:41.844Z,14.77
2022-12-05T13:06:18.247Z,14.50
2022-12-05T13:08:57.899Z,13.13
2022-12-05T13:11:35.453Z,11.90
2022-12-05T13:14:13.002Z,14.18
2022-12-05T13:16:51.197Z,12.95
2022-12-05T13:19:26.291Z,15.45
2022-12-05T13:21:59.632Z,20.33
2022-12-05T13:24:32.320Z,24.27
2022-12-05T13:27:06.504Z,25.90
2022-12-05T13:29:42.753Z,16.88
2022-12-05T13:32:29.966Z,17.70
2022-12-05T13:35:05.356Z,15.88
2022-12-05T13:38:04.273Z,15.85
2022-12-05T13:40:58.346Z,15.73
2022-12-05T13:43:31.308Z,14.63
2022-12-05T13:46:08.283Z,14.98
2022-12-05T13:48:42.935Z,14.27
2022-12-05T13:51:25.245Z,13.00
2022-12-05T13:54:01.024Z,11.70
2022-12-05T13:56:53.910Z,13.55
2022-12-05T13:59:45.671Z,15.20
2022-12-05T14:02:36.724Z,12.85
2022-12-05T14:05:18.167Z,12.80
2022-12-05T14:07:51.891Z,14.40
2022-12-05T14:10:25.045Z,15.25
2022-12-05T14:12:59.063Z,15.20
2022-12-05T14:15:32.059Z,14.65
2022-12-05T14:18:14.295Z,13.02
2022-12-05T14:21:02.237Z,13.30
2022-12-05T14:23:55.012Z,13.05
2022-12-05T14:26:51.802Z,13.93
2022-12-05T14:29:33.560Z,12.52
2022-12-05T14:32:22.800Z,14.02
2022-12-05T14:35:02.415Z,18.48
2022-12-05T14:37:36.932Z,17.67
2022-12-05T14:40:29.832Z,17.48
2022-12-05T14:43:04.913Z,15.13
2022-12-05T14:45:39.570Z,16.08
2022-12-05T14:48:15.418Z,15.00
2022-12-05T14:50:49.070Z,14.48
2022-12-05T14:53:21.933Z,13.27
2022-12-05T14:55:54.743Z,12.93
2022-12-05T14:58:27.695Z,13.35
2022-12-05T15:01:02.558Z,12.02
2022-12-05T15:03:40.815Z,9.32
2022-12-05T15:06:15.988Z,12.88
2022-12-05T15:08:50.165Z,12.20
2022-12-05T15:11:30.814Z,10.32
2022-12-05T15:14:09.791Z,8.05
2022-12-05T15:16:43.912Z,9.13
2022-12-05T15:19:23.250Z,7.57
2022-12-05T15:21:58.113Z,7.38
2022-12-05T15:24:36.958Z,7.03
2022-12-05T15:27:12.074Z,7.35
2022-12-05T15:29:45.288Z,6.93
2022-12-05T15:32:20.308Z,7.65
2022-12-05T15:34:56.469Z,14.50
2022-12-05T15:37:48.877Z,15.98
2022-12-05T15:40:22.648Z,17.63
2022-12-05T15:42:56.559Z,17.45
2022-12-05T15:45:30.419Z,25.98
2022-12-05T15:48:03.238Z,21.90
2022-12-05T15:50:47.708Z,21.95
2022-12-05T15:53:20.429Z,20.45
2022-12-05T15:55:55.782Z,24.08
2022-12-05T15:58:43.367Z,25.33
2022-12-05T16:01:20.436Z,28.02
2022-12-05T16:03:53.151Z,26.42
2022-12-05T16:06:34.524Z,30.02
2022-12-05T16:09:11.743Z,33.22
2022-12-05T16:11:55.112Z,31.13
2022-12-05T16:14:59.387Z,25.08
2022-12-05T16:17:30.749Z,26.35
2022-12-05T16:20:29.782Z,30.17
2022-12-05T16:23:21.352Z,22.88
2022-12-05T16:25:53.991Z,24.92
2022-12-05T16:28:33.256Z,24.60
2022-12-05T16:31:06.449Z,23.23
2022-12-05T16:33:43.527Z,19.83
2022-12-05T16:36:17.039Z,18.88
2022-12-05T16:38:50.200Z,17.48
2022-12-05T16:41:25.691Z,19.17
2022-12-05T16:43:58.709Z,21.98
2022-12-05T16:46:37.551Z,18.63
2022-12-05T16:49:18.598Z,17.50
2022-12-05T16:52:14.787Z,16.63
2022-12-05T16:54:49.094Z,18.75
2022-12-05T16:57:24.567Z,17.88
2022-12-05T16:59:57.856Z,20.08
2022-12-05T17:02:30.715Z,20.00
2022-12-05T17:05:07.272Z,20.75
2022-12-05T17:07:40.089Z,20.52
2022-12-05T17:10:13.113Z,22.75
2022-12-05T17:12:47.839Z,21.08
2022-12-05T17:15:21.101Z,19.60
2022-12-05T17:17:54.557Z,16.40
2022-12-05T17:20:27.913Z,14.88
2022-12-05T17:23:00.445Z,16.23
2022-12-05T17:25:36.657Z,17.65
2022-12-05T17:28:09.322Z,18.15
2022-12-05T17:30:42.195Z,16.35
2022-12-05T17:33:16.209Z,17.00
2022-12-05T17:35:49.133Z,19.92
2022-12-05T17:38:22.399Z,19.23
2022-12-05T17:40:55.329Z,18.70
2022-12-05T17:43:28.014Z,23.92
2022-12-05T17:46:01.307Z,22.38
2022-12-05T17:48:35.643Z,20.33
2022-12-05T17:51:11.709Z,21.55
2022-12-05T17:53:50.400Z,16.77
2022-12-05T17:56:23.300Z,16.73
2022-12-05T17:58:56.006Z,22.88
2022-12-05T18:01:28.991Z,19.63
2022-12-05T18:04:01.558Z,28.83
2022-12-05T18:06:34.520Z,18.50
2022-12-05T18:09:07.223Z,13.98
2022-12-05T18:11:40.457Z,10.20
2022-12-05T18:14:13.438Z,11.90
2022-12-05T18:16:47.204Z,13.90
2022-12-05T18:19:24.079Z,13.40
2022-12-05T18:21:58.646Z,9.70
2022-12-05T18:24:31.282Z,16.02
2022-12-05T18:27:05.781Z,18.00
2022-12-05T18:29:39.596Z,14.18
2022-12-05T18:32:12.825Z,13.68
2022-12-05T18:34:45.694Z,13.02
2022-12-05T18:37:19.035Z,12.68
2022-12-05T18:39:51.633Z,12.52
2022-12-05T18:42:24.523Z,13.10
2022-12-05T18:44:57.340Z,11.77
2022-12-05T18:47:30.443Z,9.95
2022-12-05T18:50:03.089Z,9.05
2022-12-05T18:52:35.985Z,9.13
2022-12-05T18:55:17.331Z,10.50
2022-12-05T18:57:50.979Z,9.68
2022-12-05T19:00:23.624Z,11.43
2022-12-05T19:02:56.466Z,12.98
2022-12-05T19:05:30.630Z,10.32
2022-12-05T19:08:03.757Z,11.10
2022-12-05T19:10:36.596Z,11.77
2022-12-05T19:13:09.790Z,9.80
2022-12-05T19:15:42.340Z,15.07
2022-12-05T19:18:15.337Z,12.55
2022-12-05T19:20:51.539Z,12.68
2022-12-05T19:23:25.204Z,13.15
2022-12-05T19:26:01.121Z,11.30
2022-12-05T19:28:34.900Z,11.18
2022-12-05T19:31:09.032Z,15.43
2022-12-05T19:33:46.675Z,16.02
2022-12-05T19:36:20.566Z,15.68
2022-12-05T19:38:54.838Z,21.95
2022-12-05T19:41:28.616Z,20.88
2022-12-05T19:44:02.805Z,25.92
2022-12-05T19:46:37.208Z,29.13
2022-12-05T19:49:11.885Z,27.48
2022-12-05T19:51:45.136Z,24.70
2022-12-05T19:54:18.324Z,22.55
2022-12-05T19:56:51.088Z,26.10
2022-12-05T19:59:24.038Z,24.90
2022-12-05T20:01:56.679Z,23.77
2022-12-05T20:04:29.776Z,23.13
2022-12-05T20:07:02.447Z,18.70
2022-12-05T20:09:35.452Z,17.23
2022-12-05T20:12:08.135Z,17.90
2022-12-05T20:14:41.001Z,16.58
2022-12-05T20:17:13.570Z,19.10
2022-12-05T20:19:47.076Z,16.73
2022-12-05T20:22:19.567Z,15.68
2022-12-05T20:24:52.566Z,16.70
2022-12-05T20:27:25.240Z,18.27
2022-12-05T20:29:58.453Z,17.20
2022-12-05T20:32:31.204Z,21.73
2022-12-05T20:35:04.212Z,19.92
2022-12-05T20:37:36.933Z,18.08
2022-12-05T20:40:10.243Z,16.25
2022-12-05T20:42:46.665Z,16.90
2022-12-05T20:45:20.053Z,16.15
2022-12-05T20:47:52.830Z,14.25
2022-12-05T20:50:25.802Z,14.48
2022-12-05T20:52:58.355Z,11.45
2022-12-05T20:55:31.384Z,11.13
2022-12-05T20:58:05.319Z,11.75
2022-12-05T21:00:38.633Z,9.18
2022-12-05T21:03:17.039Z,12.27
2022-12-05T21:05:50.190Z,10.35
2022-12-05T21:08:22.789Z,12.07
2022-12-05T21:10:55.824Z,11.00
2022-12-05T21:13:28.412Z,15.02
2022-12-05T21:16:05.303Z,13.45
2022-12-05T21:18:38.478Z,14.60
2022-12-05T21:21:15.952Z,20.50
2022-12-05T21:23:53.675Z,24.65
2022-12-05T21:26:27.619Z,27.02
2022-12-05T21:29:01.200Z,15.50
2022-12-05T21:31:38.728Z,12.82
2022-12-05T21:34:16.505Z,14.88
2022-12-05T21:36:49.763Z,17.02
2022-12-05T21:39:22.272Z,16.45
2022-12-05T21:41:55.509Z,15.77
2022-12-05T21:44:28.073Z,18.30
2022-12-05T21:47:01.130Z,18.70
2022-12-05T21:49:33.675Z,15.82
2022-12-05T21:52:06.565Z,16.75
2022-12-05T21:54:39.209Z,16.00
2022-12-05T21:57:12.047Z,16.48
2022-12-05T21:59:44.706Z,15.07
2022-12-05T22:02:17.629Z,13.98
2022-12-05T22:04:50.214Z,20.70
2022-12-05T22:07:23.356Z,15.40
2022-12-05T22:09:56.228Z,14.43
2022-12-05T22:12:29.456Z,10.50
2022-12-05T22:15:02.081Z,16.70
2022-12-05T22:17:34.965Z,17.52
2022-12-05T22:20:07.779Z,19.77
2022-12-05T22:22:40.777Z,19.45
2022-12-05T22:25:13.357Z,17.35
2022-12-05T22:27:46.255Z,17.15
2022-12-05T22:30:19.198Z,21.45
2022-12-05T22:32:53.640Z,20.48
2022-12-05T22:35:26.340Z,21.00
2022-12-05T22:37:59.333Z,18.40
2022-12-05T22:40:31.888Z,19.20
2022-12-05T22:43:04.810Z,12.82
2022-12-05T22:45:37.448Z,12.65
2022-12-05T22:48:10.810Z,11.40
2022-12-05T22:50:50.899Z,11.02
2022-12-05T22:53:24.500Z,9.32
2022-12-05T22:56:07.734Z,10.98
2022-12-05T22:58:41.607Z,10.80
2022-12-05T23:01:18.552Z,9.60
2022-12-05T23:03:54.891Z,9.02
2022-12-05T23:06:28.002Z,8.52
2022-12-05T23:09:01.492Z,8.57
2022-12-05T23:11:34.374Z,9.52
2022-12-05T23:14:07.310Z,8.75
2022-12-05T23:16:39.995Z,9.43
2022-12-05T23:19:12.910Z,8.50
2022-12-05T23:21:45.520Z,7.32
2022-12-05T23:24:18.459Z,9.55
2022-12-05T23:26:51.180Z,9.85
2022-12-05T23:29:24.135Z,9.30
2022-12-05T23:31:56.741Z,9.65
2022-12-05T23:34:29.741Z,9.93
2022-12-05T23:37:02.305Z,10.07
2022-12-05T23:39:35.391Z,12.13
2022-12-05T23:42:13.615Z,9.77
2022-12-05T23:44:47.958Z,13.07
2022-12-05T23:47:20.426Z,9.48
2022-12-05T23:49:53.351Z,8.82
2022-12-05T23:52:26.086Z,10.55
2022-12-05T23:54:59.028Z,11.25
2022-12-05T23:57:31.708Z,10.20
